Aérodrome :
LOGIN :

S'inscrire | Disclaimer

   EN    FR    IT 

 










Légende :    VFR   VFR Marginal   IFR   IFR Intensif   IFR Très Intensif
Visi : 
Plafond : 
>= 8 km
>= 3000ft
5 à 8 km
1000 à 3000 ft
1500m à 5 km
500 à 1000 ft
800 à 1500m
200 à 500 ft
< 800m
< 200 ft
Symboles :   Orages  Brouillard  Fortes neiges  Fortes précipitations  Vent > 20 kt
SIGMETs :   Divers  Orages  Givrage  Turbulence  Onde Orograph.  Cendres Volcan.







- Altitude de l'aérodrome : 170 ft
- Code IATA : BGO


ENBR - Bergen , Flesland

DERNIER METAR :
  • 221050Z 25012KT 9999 -SHRA SCT020CB BKN035 11/08 Q0995 TEMPO 25015G25KT 4000 SHRA BKN014CB RMK WIND 1200FT 27022G32KT

METARs EXPIRÉS :
  • 221020Z 24013KT 9999 VCSH SCT020CB SCT035 10/07 Q0995 TEMPO 25015G25KT 4000 SHRA BKN014CB RMK WIND 1200FT 26021G31KT
  • 220950Z 25014KT 9999 -SHRA FEW020CB BKN035 09/06 Q0995 TEMPO 25015G25KT 4000 SHRA BKN014CB RMK WIND 1200FT 25022KT
  • 220920Z 24014G24KT 9999 VCSH FEW020CB SCT030 BKN045 10/07 Q0995 TEMPO 4000 SHRA BKN014CB RMK WIND 1200FT 25025G41KT
  • 220850Z 24015KT 9999 SHRA FEW020CB SCT030 BKN040 10/06 Q0995 TEMPO 25017G27KT 4000 SHRA BKN014CB RMK WIND 1200FT 25021G31KT
  • 220820Z 24012KT 220V280 9999 VCSH FEW020CB SCT025 BKN035 10/06 Q0995 TEMPO 25015G25KT 4000 SHRA BKN014CB RMK WIND 1200FT 25022G33KT

TAF TAF ENBR
Valide du 22 à 06h jusqu'au 23 à 06h UTC


2206/2306 25010KT 9999 -SHRA FEW015TCU BKN025
TEMPO 2206/2306 4000 SHRAGS BKN012CB
TEMPO 2206/2216 25015G25KT
BECMG 2216/2218 32012KT
Pas de NOTAMs connus pour ce terrain.



MET'MAP, la Météo Aéronautique d'un coup d'oeil ! - Copyright ORBIFLY Décembre 2007 - Disclaimer

ORBIFLY MET'MAP TEAM :

Programmation & Développement : Alexandra Zaïnal
Conception & Développement : Baudouin d'Aumeries
Co-Programmation & Développement : Marc-Olivier Méhu
Soutien technique & logistique : Manuel Goepfert

Contact : metmap@orbifly.com




SOURCES & CREDITS :

   NOAA